Weather History for KOKK - November, 2012

Change the Weather History Date:

Thursday, November 1, 2012

  Actual Average (KGUS) Record (KGUS)
Temperature  
Mean Temperature 42 °F -  
Max Temperature 53 °F 54 °F 77 °F (1999)
Min Temperature 30 °F 38 °F 24 °F (1996)
Degree Days  
Heating Degree Days 24    
Moisture  
Dew Point 28 °F    
Average Humidity 62    
Maximum Humidity 81    
Minimum Humidity 40    
Precipitation  
Precipitation 0.00 in - - ()
Sea Level Pressure  
Sea Level Pressure 29.83 in    
Wind  
Wind Speed 11 mph (WNW)    
Max Wind Speed 20 mph    
Max Gust Speed 26 mph    
Visibility 10 miles    
Events      
Averages and records for this station are not official NWS values.
T = Trace of Precipitation, MM = Missing Value Source: NWS Daily Summary

Daily Weather History Graph

Daily Weather History Graph

Search for Another Location

Airport or City:

Trip Planner

Search our weather history database for the weather conditions in past years. The results will help you decide how hot, cold, wet, or windy it might be!

Date:

Astronomy

Nov. 01, 2012 Rise Set
Actual Time 7:14 AM CDT 5:40 PM CDT
Civil Twilight 6:46 AM CDT 6:08 PM CDT
Nautical Twilight 6:14 AM CDT 6:40 PM CDT
Astronomical Twilight 5:42 AM CDT 7:12 PM CDT
Moon 7:36 PM CDT (11/1) 9:47 AM CDT (11/1)
Length of Visible Light 11h 22m
Length of Day
10h 25m
Waning Gibbous, 93% of the Moon is Illuminated
Nov 1
Waning Gibbous
Nov 6
Last Quarter
Nov 13
New
Nov 20
First Quarter
Nov 28
Full

Hourly Weather History & Observations

Time (CDT) Temp. Windchill Dew Point Humidity Pressure Visibility Wind Dir Wind Speed Gust Speed Precip Events Conditions
12:15 AM 41.0 °F 34.3 °F 33.8 °F 76% 29.81 in 10.0 mi West 11.5 mph - N/A   Overcast
12:35 AM 41.0 °F 34.7 °F 33.8 °F 76% 29.81 in 10.0 mi WNW 10.4 mph - N/A   Overcast
12:55 AM 41.0 °F 34.3 °F 33.8 °F 76% 29.80 in 10.0 mi WNW 11.5 mph - N/A   Overcast
1:15 AM 41.0 °F 33.9 °F 35.6 °F 81% 29.80 in 10.0 mi WNW 12.7 mph - N/A   Overcast
1:35 AM 41.0 °F 33.9 °F 33.8 °F 76% 29.80 in 10.0 mi WNW 12.7 mph - N/A   Overcast
1:55 AM 41.0 °F 34.3 °F 33.8 °F 76% 29.80 in 10.0 mi WNW 11.5 mph - N/A   Overcast
2:15 AM 39.2 °F 32.0 °F 33.8 °F 81% 29.81 in 10.0 mi WNW 11.5 mph - N/A   Overcast
2:35 AM 39.2 °F 32.0 °F 30.2 °F 70% 29.82 in 10.0 mi WNW 11.5 mph - N/A   Scattered Clouds
2:55 AM 37.4 °F 29.8 °F 30.2 °F 75% 29.82 in 10.0 mi WNW 11.5 mph - N/A   Clear
3:15 AM 37.4 °F 29.8 °F 30.2 °F 75% 29.82 in 10.0 mi West 11.5 mph - N/A   Clear
3:35 AM 35.6 °F 28.0 °F 28.4 °F 75% 29.81 in 10.0 mi West 10.4 mph - N/A   Clear
3:55 AM 35.6 °F 28.6 °F 28.4 °F 75% 29.82 in 10.0 mi West 9.2 mph - N/A   Clear
4:15 AM 33.8 °F 25.8 °F 28.4 °F 81% 29.82 in 10.0 mi West 10.4 mph - N/A   Clear
4:35 AM 33.8 °F 25.8 °F 26.6 °F 75% 29.82 in 10.0 mi West 10.4 mph - N/A   Clear
4:55 AM 33.8 °F 25.8 °F 24.8 °F 70% 29.82 in 10.0 mi West 10.4 mph - N/A   Clear
5:15 AM 33.8 °F 25.8 °F 26.6 °F 75% 29.83 in 10.0 mi West 10.4 mph - N/A   Clear
5:35 AM 32.0 °F 23.6 °F 24.8 °F 75% 29.82 in 10.0 mi West 10.4 mph - N/A   Clear
5:55 AM 32.0 °F 23.6 °F 24.8 °F 75% 29.82 in 10.0 mi West 10.4 mph - N/A   Clear
6:15 AM 32.0 °F 23.0 °F 24.8 °F 75% 29.82 in 10.0 mi West 11.5 mph - N/A   Clear
6:35 AM 30.2 °F 20.8 °F 23.0 °F 75% 29.83 in 10.0 mi West 11.5 mph - N/A   Clear
6:55 AM 30.2 °F 20.8 °F 24.8 °F 80% 29.83 in 10.0 mi West 11.5 mph - N/A   Clear
7:15 AM 30.2 °F 21.3 °F 21.2 °F 69% 29.84 in 10.0 mi West 10.4 mph - N/A   Clear
7:35 AM 30.2 °F 21.3 °F 24.8 °F 80% 29.84 in 10.0 mi WNW 10.4 mph - N/A   Clear
7:55 AM 33.8 °F 24.8 °F 24.8 °F 70% 29.85 in 10.0 mi West 12.7 mph - N/A   Mostly Cloudy
8:35 AM 33.8 °F 24.8 °F 24.8 °F 70% 29.86 in 10.0 mi West 12.7 mph - N/A   Scattered Clouds
8:55 AM 35.6 °F 26.6 °F 24.8 °F 65% 29.87 in 10.0 mi West 13.8 mph - N/A   Mostly Cloudy
9:15 AM 35.6 °F 26.6 °F 24.8 °F 65% 29.87 in 10.0 mi WNW 13.8 mph - N/A   Mostly Cloudy
9:35 AM 37.4 °F 28.9 °F 26.6 °F 65% 29.87 in 10.0 mi WNW 13.8 mph - N/A   Scattered Clouds
9:55 AM 37.4 °F 28.9 °F 24.8 °F 60% 29.87 in 10.0 mi WNW 13.8 mph - N/A   Mostly Cloudy
10:15 AM 37.4 °F 30.3 °F 28.4 °F 70% 29.87 in 10.0 mi WNW 10.4 mph - N/A   Scattered Clouds
10:35 AM 39.2 °F 32.0 °F 26.6 °F 61% 29.87 in 10.0 mi WNW 11.5 mph - N/A   Partly Cloudy
10:55 AM 42.8 °F 36.2 °F 28.4 °F 57% 29.87 in 10.0 mi WNW 12.7 mph - N/A   Clear
11:15 AM 44.6 °F 38.4 °F 28.4 °F 53% 29.87 in 10.0 mi West 12.7 mph 19.6 mph N/A   Clear
11:35 AM 44.6 °F 37.4 °F 28.4 °F 53% 29.87 in 10.0 mi West 16.1 mph - N/A   Partly Cloudy
11:55 AM 46.4 °F 40.1 °F 26.6 °F 46% 29.87 in 10.0 mi West 15.0 mph - N/A   Clear
12:15 PM 46.4 °F 40.1 °F 23.0 °F 40% 29.86 in 10.0 mi WNW 15.0 mph - N/A   Scattered Clouds
12:35 PM 46.4 °F 39.8 °F 24.8 °F 43% 29.85 in 10.0 mi WNW 16.1 mph - N/A   Mostly Cloudy
2:55 PM 50.0 °F - 28.4 °F 43% 29.81 in 10.0 mi West 16.1 mph - N/A   Unknown
3:15 PM 51.8 °F - 28.4 °F 41% 29.81 in 10.0 mi WNW 13.8 mph - N/A   Scattered Clouds
3:35 PM 51.8 °F - 30.2 °F 44% 29.81 in 10.0 mi West 15.0 mph - N/A   Partly Cloudy
3:55 PM 53.6 °F - 30.2 °F 41% 29.81 in 10.0 mi WNW 19.6 mph 26.5 mph N/A   Mostly Cloudy
4:15 PM 51.8 °F - 28.4 °F 41% 29.81 in 10.0 mi WNW 18.4 mph - N/A   Overcast
4:35 PM 51.8 °F - 28.4 °F 41% 29.81 in 10.0 mi West 12.7 mph - N/A   Mostly Cloudy
4:55 PM 50.0 °F - 26.6 °F 40% 29.81 in 10.0 mi West 11.5 mph - N/A   Mostly Cloudy
5:15 PM 48.2 °F - 28.4 °F 46% 29.82 in 10.0 mi West 12.7 mph - N/A   Overcast
5:35 PM 48.2 °F - 28.4 °F 46% 29.82 in 10.0 mi WNW 9.2 mph - N/A   Overcast
5:55 PM 48.2 °F - 30.2 °F 50% 29.83 in 10.0 mi West 9.2 mph - N/A   Overcast
6:15 PM 48.2 °F - 30.2 °F 50% 29.83 in 10.0 mi WNW 8.1 mph - N/A   Overcast
6:35 PM 46.4 °F 42.4 °F 30.2 °F 53% 29.83 in 10.0 mi WNW 8.1 mph - N/A   Overcast
6:55 PM 48.2 °F - 30.2 °F 50% 29.84 in 10.0 mi WNW 11.5 mph - N/A   Overcast
7:15 PM 48.2 °F - 30.2 °F 50% 29.84 in 10.0 mi WNW 10.4 mph - N/A   Overcast
7:35 PM 46.4 °F 41.9 °F 30.2 °F 53% 29.84 in 10.0 mi WNW 9.2 mph - N/A   Overcast
7:55 PM 46.4 °F 41.5 °F 28.4 °F 50% 29.84 in 10.0 mi NW 10.4 mph - N/A   Overcast
8:15 PM 46.4 °F 41.9 °F 28.4 °F 50% 29.84 in 10.0 mi NW 9.2 mph - N/A   Mostly Cloudy
8:35 PM 44.6 °F 40.7 °F 26.6 °F 49% 29.84 in 10.0 mi NNW 6.9 mph - N/A   Mostly Cloudy
8:55 PM 42.8 °F - 28.4 °F 57% 29.84 in 10.0 mi Calm Calm - N/A   Mostly Cloudy
9:15 PM 42.8 °F 41.1 °F 28.4 °F 57% 29.85 in 10.0 mi West 3.5 mph - N/A   Mostly Cloudy
9:35 PM 41.0 °F 37.1 °F 30.2 °F 65% 29.85 in 10.0 mi WSW 5.8 mph - N/A   Mostly Cloudy
9:55 PM 41.0 °F 37.1 °F 30.2 °F 65% 29.84 in 10.0 mi SW 5.8 mph - N/A   Overcast
10:15 PM 41.0 °F 37.1 °F 32.0 °F 70% 29.84 in 10.0 mi WSW 5.8 mph - N/A   Overcast
10:35 PM 41.0 °F - 32.0 °F 70% 29.84 in 10.0 mi Calm Calm - N/A   Overcast
10:55 PM 39.2 °F 37.0 °F 30.2 °F 70% 29.84 in 10.0 mi NW 3.5 mph - N/A   Mostly Cloudy
11:15 PM 39.2 °F - 30.2 °F 70% 29.84 in 10.0 mi Calm Calm - N/A   Mostly Cloudy
11:35 PM 39.2 °F 35.0 °F 30.2 °F 70% 29.85 in 10.0 mi North 5.8 mph - N/A   Overcast
11:55 PM 39.2 °F 37.0 °F 30.2 °F 70% 29.85 in 10.0 mi North 3.5 mph - N/A   Overcast